sensor_id;sensor_type;location;lat;lon;timestamp;P1;durP1;ratioP1;P2;durP2;ratioP2
9117;SDS011;4594;50.994;7.126;2024-01-27T00:00:07;7.87;;;3.50;;
9117;SDS011;4594;50.994;7.126;2024-01-27T00:02:35;4.83;;;2.77;;
9117;SDS011;4594;50.994;7.126;2024-01-27T00:05:01;4.47;;;2.80;;
9117;SDS011;4594;50.994;7.126;2024-01-27T00:07:28;8.33;;;3.47;;
9117;SDS011;4594;50.994;7.126;2024-01-27T00:09:54;6.73;;;3.47;;
9117;SDS011;4594;50.994;7.126;2024-01-27T00:12:20;10.83;;;4.20;;
9117;SDS011;4594;50.994;7.126;2024-01-27T00:14:46;9.80;;;3.43;;
9117;SDS011;4594;50.994;7.126;2024-01-27T00:17:12;9.27;;;3.37;;
9117;SDS011;4594;50.994;7.126;2024-01-27T00:19:38;8.37;;;3.40;;
9117;SDS011;4594;50.994;7.126;2024-01-27T00:22:04;4.37;;;3.03;;
9117;SDS011;4594;50.994;7.126;2024-01-27T00:24:29;8.47;;;3.30;;
9117;SDS011;4594;50.994;7.126;2024-01-27T00:26:55;9.80;;;3.57;;
9117;SDS011;4594;50.994;7.126;2024-01-27T00:29:21;6.63;;;3.37;;
9117;SDS011;4594;50.994;7.126;2024-01-27T00:31:47;8.97;;;3.70;;
9117;SDS011;4594;50.994;7.126;2024-01-27T00:34:14;7.43;;;3.80;;
9117;SDS011;4594;50.994;7.126;2024-01-27T00:36:40;9.87;;;4.10;;
9117;SDS011;4594;50.994;7.126;2024-01-27T00:39:07;7.40;;;3.73;;
9117;SDS011;4594;50.994;7.126;2024-01-27T00:41:33;10.60;;;3.30;;
9117;SDS011;4594;50.994;7.126;2024-01-27T00:43:59;11.57;;;5.17;;
9117;SDS011;4594;50.994;7.126;2024-01-27T00:46:24;6.37;;;3.73;;
9117;SDS011;4594;50.994;7.126;2024-01-27T00:48:50;5.97;;;4.10;;
9117;SDS011;4594;50.994;7.126;2024-01-27T00:51:16;12.13;;;3.87;;
9117;SDS011;4594;50.994;7.126;2024-01-27T00:53:41;9.20;;;3.73;;
9117;SDS011;4594;50.994;7.126;2024-01-27T00:56:07;6.20;;;3.20;;
9117;SDS011;4594;50.994;7.126;2024-01-27T00:58:33;8.50;;;3.60;;
9117;SDS011;4594;50.994;7.126;2024-01-27T01:00:59;6.13;;;3.80;;
9117;SDS011;4594;50.994;7.126;2024-01-27T01:03:26;7.10;;;3.77;;
9117;SDS011;4594;50.994;7.126;2024-01-27T01:05:51;5.97;;;3.03;;
9117;SDS011;4594;50.994;7.126;2024-01-27T01:08:18;4.27;;;2.80;;
9117;SDS011;4594;50.994;7.126;2024-01-27T01:10:43;7.13;;;3.60;;
9117;SDS011;4594;50.994;7.126;2024-01-27T01:13:09;10.13;;;3.50;;
9117;SDS011;4594;50.994;7.126;2024-01-27T01:15:36;6.73;;;4.00;;
9117;SDS011;4594;50.994;7.126;2024-01-27T01:18:01;5.97;;;2.67;;
9117;SDS011;4594;50.994;7.126;2024-01-27T01:20:28;8.27;;;3.67;;
9117;SDS011;4594;50.994;7.126;2024-01-27T01:22:55;7.70;;;3.47;;
9117;SDS011;4594;50.994;7.126;2024-01-27T01:25:27;5.87;;;3.53;;
9117;SDS011;4594;50.994;7.126;2024-01-27T01:27:53;5.73;;;3.73;;
9117;SDS011;4594;50.994;7.126;2024-01-27T01:30:19;7.47;;;3.67;;
9117;SDS011;4594;50.994;7.126;2024-01-27T01:32:45;24.10;;;3.40;;
9117;SDS011;4594;50.994;7.126;2024-01-27T01:35:10;8.97;;;3.43;;
9117;SDS011;4594;50.994;7.126;2024-01-27T01:37:36;3.60;;;3.30;;
9117;SDS011;4594;50.994;7.126;2024-01-27T01:40:02;6.73;;;3.43;;
9117;SDS011;4594;50.994;7.126;2024-01-27T01:42:28;9.93;;;3.70;;
9117;SDS011;4594;50.994;7.126;2024-01-27T01:44:54;6.13;;;3.70;;
9117;SDS011;4594;50.994;7.126;2024-01-27T01:47:20;4.30;;;3.37;;
9117;SDS011;4594;50.994;7.126;2024-01-27T01:49:47;5.10;;;3.00;;
9117;SDS011;4594;50.994;7.126;2024-01-27T01:52:14;6.60;;;3.43;;
9117;SDS011;4594;50.994;7.126;2024-01-27T01:54:48;11.07;;;3.83;;
9117;SDS011;4594;50.994;7.126;2024-01-27T01:57:15;3.73;;;3.43;;
9117;SDS011;4594;50.994;7.126;2024-01-27T01:59:41;4.90;;;3.47;;
9117;SDS011;4594;50.994;7.126;2024-01-27T02:02:11;4.00;;;3.10;;
9117;SDS011;4594;50.994;7.126;2024-01-27T02:07:06;6.40;;;3.30;;
9117;SDS011;4594;50.994;7.126;2024-01-27T02:09:32;6.63;;;3.50;;
9117;SDS011;4594;50.994;7.126;2024-01-27T02:11:57;3.53;;;3.23;;
9117;SDS011;4594;50.994;7.126;2024-01-27T02:14:23;4.70;;;3.50;;
9117;SDS011;4594;50.994;7.126;2024-01-27T02:16:51;11.93;;;3.63;;
9117;SDS011;4594;50.994;7.126;2024-01-27T02:19:17;3.73;;;3.43;;
9117;SDS011;4594;50.994;7.126;2024-01-27T02:21:42;3.90;;;3.07;;
9117;SDS011;4594;50.994;7.126;2024-01-27T02:24:08;7.00;;;4.27;;
9117;SDS011;4594;50.994;7.126;2024-01-27T02:26:34;5.60;;;3.20;;
9117;SDS011;4594;50.994;7.126;2024-01-27T02:29:00;6.37;;;3.60;;
9117;SDS011;4594;50.994;7.126;2024-01-27T02:31:26;9.77;;;4.03;;
9117;SDS011;4594;50.994;7.126;2024-01-27T02:33:51;6.33;;;3.60;;
9117;SDS011;4594;50.994;7.126;2024-01-27T02:36:17;7.57;;;3.47;;
9117;SDS011;4594;50.994;7.126;2024-01-27T02:38:43;3.90;;;3.30;;
9117;SDS011;4594;50.994;7.126;2024-01-27T02:41:11;6.20;;;3.07;;
9117;SDS011;4594;50.994;7.126;2024-01-27T02:43:37;4.80;;;3.20;;
9117;SDS011;4594;50.994;7.126;2024-01-27T02:46:12;4.50;;;3.50;;
9117;SDS011;4594;50.994;7.126;2024-01-27T02:48:40;6.87;;;3.70;;
9117;SDS011;4594;50.994;7.126;2024-01-27T02:51:09;9.90;;;3.30;;
9117;SDS011;4594;50.994;7.126;2024-01-27T02:53:35;4.13;;;3.23;;
9117;SDS011;4594;50.994;7.126;2024-01-27T02:56:01;7.83;;;3.13;;
9117;SDS011;4594;50.994;7.126;2024-01-27T02:58:27;4.47;;;3.20;;
9117;SDS011;4594;50.994;7.126;2024-01-27T03:00:52;5.97;;;2.93;;
9117;SDS011;4594;50.994;7.126;2024-01-27T03:03:18;9.40;;;3.10;;
9117;SDS011;4594;50.994;7.126;2024-01-27T03:05:44;4.77;;;3.50;;
9117;SDS011;4594;50.994;7.126;2024-01-27T03:08:10;5.90;;;3.17;;
9117;SDS011;4594;50.994;7.126;2024-01-27T03:10:35;5.30;;;3.63;;
9117;SDS011;4594;50.994;7.126;2024-01-27T03:13:01;3.13;;;2.90;;
9117;SDS011;4594;50.994;7.126;2024-01-27T03:15:27;4.70;;;2.97;;
9117;SDS011;4594;50.994;7.126;2024-01-27T03:17:53;7.03;;;3.43;;
9117;SDS011;4594;50.994;7.126;2024-01-27T03:20:19;4.00;;;3.20;;
9117;SDS011;4594;50.994;7.126;2024-01-27T03:22:45;6.23;;;3.37;;
9117;SDS011;4594;50.994;7.126;2024-01-27T03:25:11;3.57;;;3.07;;
9117;SDS011;4594;50.994;7.126;2024-01-27T03:27:37;5.80;;;3.33;;
9117;SDS011;4594;50.994;7.126;2024-01-27T03:30:03;3.67;;;3.37;;
9117;SDS011;4594;50.994;7.126;2024-01-27T03:32:30;5.80;;;3.07;;
9117;SDS011;4594;50.994;7.126;2024-01-27T03:34:59;3.80;;;3.47;;
9117;SDS011;4594;50.994;7.126;2024-01-27T03:37:26;5.10;;;3.30;;
9117;SDS011;4594;50.994;7.126;2024-01-27T03:39:52;3.57;;;3.03;;
9117;SDS011;4594;50.994;7.126;2024-01-27T03:42:18;6.17;;;3.03;;
9117;SDS011;4594;50.994;7.126;2024-01-27T03:44:43;5.83;;;3.17;;
9117;SDS011;4594;50.994;7.126;2024-01-27T03:47:09;6.07;;;3.43;;
9117;SDS011;4594;50.994;7.126;2024-01-27T03:49:35;8.27;;;3.40;;
9117;SDS011;4594;50.994;7.126;2024-01-27T03:52:01;3.80;;;3.10;;
9117;SDS011;4594;50.994;7.126;2024-01-27T03:54:27;6.00;;;3.60;;
9117;SDS011;4594;50.994;7.126;2024-01-27T03:56:53;4.00;;;3.60;;
9117;SDS011;4594;50.994;7.126;2024-01-27T03:59:19;3.90;;;3.23;;
9117;SDS011;4594;50.994;7.126;2024-01-27T04:01:45;8.40;;;4.23;;
9117;SDS011;4594;50.994;7.126;2024-01-27T04:04:12;4.17;;;3.73;;
9117;SDS011;4594;50.994;7.126;2024-01-27T04:06:38;6.47;;;3.87;;
9117;SDS011;4594;50.994;7.126;2024-01-27T04:09:05;5.13;;;4.10;;
9117;SDS011;4594;50.994;7.126;2024-01-27T04:11:33;6.77;;;3.60;;
9117;SDS011;4594;50.994;7.126;2024-01-27T04:14:00;8.97;;;3.77;;
9117;SDS011;4594;50.994;7.126;2024-01-27T04:16:27;6.00;;;4.27;;
9117;SDS011;4594;50.994;7.126;2024-01-27T04:18:53;4.93;;;2.93;;
9117;SDS011;4594;50.994;7.126;2024-01-27T04:21:18;4.97;;;3.70;;
9117;SDS011;4594;50.994;7.126;2024-01-27T04:23:44;6.17;;;3.53;;
9117;SDS011;4594;50.994;7.126;2024-01-27T04:26:10;5.20;;;3.13;;
9117;SDS011;4594;50.994;7.126;2024-01-27T04:28:36;7.23;;;3.80;;
9117;SDS011;4594;50.994;7.126;2024-01-27T04:31:02;6.00;;;3.43;;
9117;SDS011;4594;50.994;7.126;2024-01-27T04:33:28;3.43;;;3.10;;
9117;SDS011;4594;50.994;7.126;2024-01-27T04:35:54;7.57;;;3.73;;
9117;SDS011;4594;50.994;7.126;2024-01-27T04:38:19;4.67;;;3.60;;
9117;SDS011;4594;50.994;7.126;2024-01-27T04:40:45;4.37;;;3.90;;
9117;SDS011;4594;50.994;7.126;2024-01-27T04:43:14;7.13;;;3.80;;
9117;SDS011;4594;50.994;7.126;2024-01-27T04:45:41;7.97;;;3.70;;
9117;SDS011;4594;50.994;7.126;2024-01-27T04:48:07;6.40;;;3.70;;
9117;SDS011;4594;50.994;7.126;2024-01-27T04:50:33;4.30;;;3.63;;
9117;SDS011;4594;50.994;7.126;2024-01-27T04:52:59;8.27;;;3.60;;
9117;SDS011;4594;50.994;7.126;2024-01-27T04:55:26;5.80;;;3.60;;
9117;SDS011;4594;50.994;7.126;2024-01-27T04:57:52;4.43;;;3.63;;
9117;SDS011;4594;50.994;7.126;2024-01-27T05:00:18;7.37;;;3.43;;
9117;SDS011;4594;50.994;7.126;2024-01-27T05:02:44;4.70;;;3.40;;
9117;SDS011;4594;50.994;7.126;2024-01-27T05:05:10;4.67;;;3.50;;
9117;SDS011;4594;50.994;7.126;2024-01-27T05:07:37;4.40;;;3.37;;
9117;SDS011;4594;50.994;7.126;2024-01-27T05:10:04;3.80;;;3.43;;
9117;SDS011;4594;50.994;7.126;2024-01-27T05:12:30;7.90;;;3.73;;
9117;SDS011;4594;50.994;7.126;2024-01-27T05:14:56;5.97;;;4.03;;
9117;SDS011;4594;50.994;7.126;2024-01-27T05:17:22;6.73;;;3.57;;
9117;SDS011;4594;50.994;7.126;2024-01-27T05:19:49;5.97;;;4.10;;
9117;SDS011;4594;50.994;7.126;2024-01-27T05:22:16;6.57;;;3.57;;
9117;SDS011;4594;50.994;7.126;2024-01-27T05:24:41;8.60;;;3.80;;
9117;SDS011;4594;50.994;7.126;2024-01-27T05:27:07;7.23;;;3.60;;
9117;SDS011;4594;50.994;7.126;2024-01-27T05:29:33;6.47;;;3.63;;
9117;SDS011;4594;50.994;7.126;2024-01-27T05:31:58;5.37;;;3.90;;
9117;SDS011;4594;50.994;7.126;2024-01-27T05:34:24;6.30;;;3.43;;
9117;SDS011;4594;50.994;7.126;2024-01-27T05:36:50;6.37;;;4.00;;
9117;SDS011;4594;50.994;7.126;2024-01-27T05:39:15;3.93;;;3.57;;
9117;SDS011;4594;50.994;7.126;2024-01-27T05:41:41;5.90;;;3.63;;
9117;SDS011;4594;50.994;7.126;2024-01-27T05:44:07;4.10;;;3.30;;
9117;SDS011;4594;50.994;7.126;2024-01-27T05:46:33;4.53;;;3.50;;
9117;SDS011;4594;50.994;7.126;2024-01-27T05:48:59;5.10;;;3.40;;
9117;SDS011;4594;50.994;7.126;2024-01-27T05:51:28;4.93;;;3.87;;
9117;SDS011;4594;50.994;7.126;2024-01-27T05:53:55;8.33;;;3.77;;
9117;SDS011;4594;50.994;7.126;2024-01-27T05:56:21;7.93;;;3.97;;
9117;SDS011;4594;50.994;7.126;2024-01-27T05:58:50;4.47;;;3.90;;
9117;SDS011;4594;50.994;7.126;2024-01-27T06:01:17;5.63;;;3.93;;
9117;SDS011;4594;50.994;7.126;2024-01-27T06:03:44;7.30;;;4.20;;
9117;SDS011;4594;50.994;7.126;2024-01-27T06:06:10;4.90;;;4.23;;
9117;SDS011;4594;50.994;7.126;2024-01-27T06:08:36;8.80;;;4.13;;
9117;SDS011;4594;50.994;7.126;2024-01-27T06:11:01;5.33;;;3.63;;
9117;SDS011;4594;50.994;7.126;2024-01-27T06:13:30;4.33;;;3.67;;
9117;SDS011;4594;50.994;7.126;2024-01-27T06:15:58;10.30;;;4.30;;
9117;SDS011;4594;50.994;7.126;2024-01-27T06:18:24;8.43;;;4.07;;
9117;SDS011;4594;50.994;7.126;2024-01-27T06:20:50;7.10;;;4.30;;
9117;SDS011;4594;50.994;7.126;2024-01-27T06:23:16;6.43;;;4.57;;
9117;SDS011;4594;50.994;7.126;2024-01-27T06:25:42;6.07;;;4.00;;
9117;SDS011;4594;50.994;7.126;2024-01-27T06:28:08;8.40;;;4.60;;
9117;SDS011;4594;50.994;7.126;2024-01-27T06:30:34;5.67;;;4.23;;
9117;SDS011;4594;50.994;7.126;2024-01-27T06:32:59;8.00;;;4.10;;
9117;SDS011;4594;50.994;7.126;2024-01-27T06:35:25;6.63;;;4.33;;
9117;SDS011;4594;50.994;7.126;2024-01-27T06:37:51;8.60;;;4.33;;
9117;SDS011;4594;50.994;7.126;2024-01-27T06:40:16;6.93;;;4.20;;
9117;SDS011;4594;50.994;7.126;2024-01-27T06:42:42;6.53;;;3.90;;
9117;SDS011;4594;50.994;7.126;2024-01-27T06:45:08;4.97;;;4.03;;
9117;SDS011;4594;50.994;7.126;2024-01-27T06:47:34;9.60;;;4.70;;
9117;SDS011;4594;50.994;7.126;2024-01-27T06:50:00;4.57;;;3.87;;
9117;SDS011;4594;50.994;7.126;2024-01-27T06:52:25;4.67;;;4.00;;
9117;SDS011;4594;50.994;7.126;2024-01-27T06:54:51;4.80;;;3.67;;
9117;SDS011;4594;50.994;7.126;2024-01-27T06:57:17;4.40;;;4.00;;
9117;SDS011;4594;50.994;7.126;2024-01-27T06:59:45;11.57;;;4.10;;
9117;SDS011;4594;50.994;7.126;2024-01-27T07:02:24;4.50;;;4.10;;
9117;SDS011;4594;50.994;7.126;2024-01-27T07:04:51;5.53;;;4.43;;
9117;SDS011;4594;50.994;7.126;2024-01-27T07:07:22;5.53;;;3.97;;
9117;SDS011;4594;50.994;7.126;2024-01-27T07:09:56;6.27;;;3.80;;
9117;SDS011;4594;50.994;7.126;2024-01-27T07:12:23;8.37;;;3.83;;
9117;SDS011;4594;50.994;7.126;2024-01-27T07:14:49;4.23;;;3.57;;
9117;SDS011;4594;50.994;7.126;2024-01-27T07:17:16;4.10;;;3.47;;
9117;SDS011;4594;50.994;7.126;2024-01-27T07:19:42;5.77;;;4.00;;
9117;SDS011;4594;50.994;7.126;2024-01-27T07:22:07;5.97;;;4.00;;
9117;SDS011;4594;50.994;7.126;2024-01-27T07:24:33;9.73;;;3.77;;
9117;SDS011;4594;50.994;7.126;2024-01-27T07:27:02;4.87;;;4.20;;
9117;SDS011;4594;50.994;7.126;2024-01-27T07:29:28;3.80;;;3.50;;
9117;SDS011;4594;50.994;7.126;2024-01-27T07:31:54;6.13;;;3.67;;
9117;SDS011;4594;50.994;7.126;2024-01-27T07:34:20;9.33;;;4.00;;
9117;SDS011;4594;50.994;7.126;2024-01-27T07:36:46;7.27;;;4.20;;
9117;SDS011;4594;50.994;7.126;2024-01-27T07:39:14;6.47;;;4.00;;
9117;SDS011;4594;50.994;7.126;2024-01-27T07:41:40;7.23;;;4.40;;
9117;SDS011;4594;50.994;7.126;2024-01-27T07:44:11;9.60;;;3.60;;
9117;SDS011;4594;50.994;7.126;2024-01-27T07:46:39;4.47;;;3.47;;
9117;SDS011;4594;50.994;7.126;2024-01-27T07:49:06;5.87;;;3.70;;
9117;SDS011;4594;50.994;7.126;2024-01-27T07:51:32;6.33;;;3.50;;
9117;SDS011;4594;50.994;7.126;2024-01-27T07:53:59;7.00;;;3.40;;
9117;SDS011;4594;50.994;7.126;2024-01-27T07:56:26;3.73;;;3.33;;
9117;SDS011;4594;50.994;7.126;2024-01-27T07:58:52;9.53;;;3.67;;
9117;SDS011;4594;50.994;7.126;2024-01-27T08:01:18;7.10;;;4.30;;
9117;SDS011;4594;50.994;7.126;2024-01-27T08:03:45;8.13;;;4.13;;
9117;SDS011;4594;50.994;7.126;2024-01-27T08:06:14;8.20;;;3.67;;
9117;SDS011;4594;50.994;7.126;2024-01-27T08:08:47;6.97;;;3.53;;
9117;SDS011;4594;50.994;7.126;2024-01-27T08:11:14;5.97;;;3.50;;
9117;SDS011;4594;50.994;7.126;2024-01-27T08:13:43;5.47;;;3.60;;
9117;SDS011;4594;50.994;7.126;2024-01-27T08:16:09;8.20;;;3.67;;
9117;SDS011;4594;50.994;7.126;2024-01-27T08:18:37;8.37;;;4.17;;
9117;SDS011;4594;50.994;7.126;2024-01-27T08:21:04;7.30;;;3.90;;
9117;SDS011;4594;50.994;7.126;2024-01-27T08:23:30;6.93;;;4.10;;
9117;SDS011;4594;50.994;7.126;2024-01-27T08:25:56;7.53;;;4.60;;
9117;SDS011;4594;50.994;7.126;2024-01-27T08:28:22;7.63;;;3.90;;
9117;SDS011;4594;50.994;7.126;2024-01-27T08:30:47;5.77;;;3.43;;
9117;SDS011;4594;50.994;7.126;2024-01-27T08:33:13;6.93;;;3.90;;
9117;SDS011;4594;50.994;7.126;2024-01-27T08:35:39;5.97;;;4.27;;
9117;SDS011;4594;50.994;7.126;2024-01-27T08:38:05;5.93;;;3.80;;
9117;SDS011;4594;50.994;7.126;2024-01-27T08:40:32;5.60;;;4.00;;
9117;SDS011;4594;50.994;7.126;2024-01-27T08:42:57;6.50;;;4.10;;
9117;SDS011;4594;50.994;7.126;2024-01-27T08:45:23;8.83;;;4.03;;
9117;SDS011;4594;50.994;7.126;2024-01-27T08:47:50;10.73;;;3.93;;
9117;SDS011;4594;50.994;7.126;2024-01-27T08:50:16;9.43;;;4.27;;
9117;SDS011;4594;50.994;7.126;2024-01-27T08:52:42;4.33;;;3.67;;
9117;SDS011;4594;50.994;7.126;2024-01-27T08:55:07;8.13;;;4.03;;
9117;SDS011;4594;50.994;7.126;2024-01-27T08:57:33;5.13;;;3.40;;
9117;SDS011;4594;50.994;7.126;2024-01-27T08:59:59;9.23;;;3.83;;
9117;SDS011;4594;50.994;7.126;2024-01-27T09:02:25;7.00;;;3.80;;
9117;SDS011;4594;50.994;7.126;2024-01-27T09:04:50;5.77;;;3.20;;
9117;SDS011;4594;50.994;7.126;2024-01-27T09:07:16;5.60;;;3.37;;
9117;SDS011;4594;50.994;7.126;2024-01-27T09:09:42;4.77;;;3.23;;
9117;SDS011;4594;50.994;7.126;2024-01-27T09:12:08;12.80;;;3.80;;
9117;SDS011;4594;50.994;7.126;2024-01-27T09:14:34;6.97;;;3.63;;
9117;SDS011;4594;50.994;7.126;2024-01-27T09:17:02;6.63;;;3.70;;
9117;SDS011;4594;50.994;7.126;2024-01-27T09:19:28;4.77;;;3.50;;
9117;SDS011;4594;50.994;7.126;2024-01-27T09:21:54;10.90;;;3.60;;
9117;SDS011;4594;50.994;7.126;2024-01-27T09:24:20;9.07;;;3.67;;
9117;SDS011;4594;50.994;7.126;2024-01-27T09:26:45;4.80;;;3.40;;
9117;SDS011;4594;50.994;7.126;2024-01-27T09:29:11;8.30;;;3.70;;
9117;SDS011;4594;50.994;7.126;2024-01-27T09:31:37;3.63;;;3.10;;
9117;SDS011;4594;50.994;7.126;2024-01-27T09:34:03;5.47;;;3.20;;
9117;SDS011;4594;50.994;7.126;2024-01-27T09:36:28;9.93;;;3.47;;
9117;SDS011;4594;50.994;7.126;2024-01-27T09:38:54;9.73;;;3.13;;
9117;SDS011;4594;50.994;7.126;2024-01-27T09:41:20;8.33;;;3.17;;
9117;SDS011;4594;50.994;7.126;2024-01-27T09:43:46;6.63;;;3.00;;
9117;SDS011;4594;50.994;7.126;2024-01-27T09:46:15;7.73;;;3.03;;
9117;SDS011;4594;50.994;7.126;2024-01-27T09:48:42;9.83;;;3.93;;
9117;SDS011;4594;50.994;7.126;2024-01-27T09:51:10;7.57;;;3.37;;
9117;SDS011;4594;50.994;7.126;2024-01-27T09:53:36;5.43;;;2.70;;
9117;SDS011;4594;50.994;7.126;2024-01-27T09:56:02;7.87;;;3.20;;
9117;SDS011;4594;50.994;7.126;2024-01-27T09:58:32;9.30;;;3.80;;
9117;SDS011;4594;50.994;7.126;2024-01-27T10:00:58;7.70;;;2.93;;
9117;SDS011;4594;50.994;7.126;2024-01-27T10:03:26;8.53;;;3.33;;
9117;SDS011;4594;50.994;7.126;2024-01-27T10:05:53;5.17;;;2.87;;
9117;SDS011;4594;50.994;7.126;2024-01-27T10:08:21;7.57;;;3.13;;
9117;SDS011;4594;50.994;7.126;2024-01-27T10:10:53;6.90;;;3.53;;
9117;SDS011;4594;50.994;7.126;2024-01-27T10:13:21;9.67;;;3.47;;
9117;SDS011;4594;50.994;7.126;2024-01-27T10:16:03;5.23;;;3.20;;
9117;SDS011;4594;50.994;7.126;2024-01-27T10:18:31;6.20;;;2.90;;
9117;SDS011;4594;50.994;7.126;2024-01-27T10:20:58;9.47;;;3.03;;
9117;SDS011;4594;50.994;7.126;2024-01-27T10:23:24;9.90;;;3.73;;
9117;SDS011;4594;50.994;7.126;2024-01-27T10:25:51;6.80;;;3.17;;
9117;SDS011;4594;50.994;7.126;2024-01-27T10:28:17;4.17;;;2.77;;
9117;SDS011;4594;50.994;7.126;2024-01-27T10:30:44;5.33;;;2.57;;
9117;SDS011;4594;50.994;7.126;2024-01-27T10:33:11;7.00;;;2.83;;
9117;SDS011;4594;50.994;7.126;2024-01-27T10:35:43;6.77;;;3.47;;
9117;SDS011;4594;50.994;7.126;2024-01-27T10:38:09;6.30;;;2.70;;
9117;SDS011;4594;50.994;7.126;2024-01-27T10:40:35;5.70;;;2.80;;
9117;SDS011;4594;50.994;7.126;2024-01-27T10:43:06;6.47;;;2.90;;
9117;SDS011;4594;50.994;7.126;2024-01-27T10:45:39;5.60;;;2.90;;
9117;SDS011;4594;50.994;7.126;2024-01-27T10:48:07;7.10;;;2.57;;
9117;SDS011;4594;50.994;7.126;2024-01-27T10:50:36;4.83;;;2.80;;
9117;SDS011;4594;50.994;7.126;2024-01-27T10:53:05;11.17;;;2.70;;
9117;SDS011;4594;50.994;7.126;2024-01-27T10:55:47;7.57;;;3.13;;
9117;SDS011;4594;50.994;7.126;2024-01-27T10:58:19;6.60;;;3.23;;
9117;SDS011;4594;50.994;7.126;2024-01-27T11:00:48;8.20;;;3.27;;
9117;SDS011;4594;50.994;7.126;2024-01-27T11:03:15;6.73;;;3.03;;
9117;SDS011;4594;50.994;7.126;2024-01-27T11:05:44;7.53;;;3.00;;
9117;SDS011;4594;50.994;7.126;2024-01-27T11:08:12;7.63;;;3.00;;
9117;SDS011;4594;50.994;7.126;2024-01-27T11:10:39;5.60;;;3.07;;
9117;SDS011;4594;50.994;7.126;2024-01-27T11:13:05;6.90;;;3.20;;
9117;SDS011;4594;50.994;7.126;2024-01-27T11:15:34;5.73;;;3.40;;
9117;SDS011;4594;50.994;7.126;2024-01-27T11:18:00;7.30;;;3.20;;
9117;SDS011;4594;50.994;7.126;2024-01-27T11:20:27;5.47;;;3.20;;
9117;SDS011;4594;50.994;7.126;2024-01-27T11:22:55;5.03;;;3.00;;
9117;SDS011;4594;50.994;7.126;2024-01-27T11:25:32;6.73;;;3.60;;
9117;SDS011;4594;50.994;7.126;2024-01-27T11:27:57;5.70;;;3.37;;
9117;SDS011;4594;50.994;7.126;2024-01-27T11:30:32;10.00;;;3.23;;
9117;SDS011;4594;50.994;7.126;2024-01-27T11:33:01;9.80;;;3.37;;
9117;SDS011;4594;50.994;7.126;2024-01-27T11:35:28;5.43;;;3.30;;
9117;SDS011;4594;50.994;7.126;2024-01-27T11:37:54;9.77;;;2.83;;
9117;SDS011;4594;50.994;7.126;2024-01-27T11:40:20;7.13;;;2.53;;
9117;SDS011;4594;50.994;7.126;2024-01-27T11:42:59;5.87;;;2.93;;
9117;SDS011;4594;50.994;7.126;2024-01-27T11:45:27;9.00;;;3.00;;
9117;SDS011;4594;50.994;7.126;2024-01-27T11:47:57;4.57;;;2.70;;
9117;SDS011;4594;50.994;7.126;2024-01-27T11:50:25;4.77;;;2.80;;
9117;SDS011;4594;50.994;7.126;2024-01-27T11:52:51;5.67;;;3.07;;
9117;SDS011;4594;50.994;7.126;2024-01-27T11:55:16;9.03;;;3.43;;
9117;SDS011;4594;50.994;7.126;2024-01-27T11:57:44;4.60;;;2.93;;
9117;SDS011;4594;50.994;7.126;2024-01-27T12:00:10;8.07;;;2.97;;
9117;SDS011;4594;50.994;7.126;2024-01-27T12:02:39;10.10;;;4.20;;
9117;SDS011;4594;50.994;7.126;2024-01-27T12:05:06;11.90;;;4.73;;
9117;SDS011;4594;50.994;7.126;2024-01-27T12:07:33;14.93;;;5.70;;
9117;SDS011;4594;50.994;7.126;2024-01-27T12:09:59;13.07;;;4.43;;
9117;SDS011;4594;50.994;7.126;2024-01-27T12:12:25;7.83;;;4.40;;
9117;SDS011;4594;50.994;7.126;2024-01-27T12:14:51;8.27;;;3.57;;
9117;SDS011;4594;50.994;7.126;2024-01-27T12:17:17;6.60;;;3.53;;
9117;SDS011;4594;50.994;7.126;2024-01-27T12:19:51;12.40;;;4.97;;
9117;SDS011;4594;50.994;7.126;2024-01-27T12:22:24;7.90;;;3.93;;
9117;SDS011;4594;50.994;7.126;2024-01-27T12:25:13;10.43;;;4.03;;
9117;SDS011;4594;50.994;7.126;2024-01-27T12:27:39;6.03;;;4.10;;
9117;SDS011;4594;50.994;7.126;2024-01-27T12:30:05;6.00;;;3.77;;
9117;SDS011;4594;50.994;7.126;2024-01-27T12:32:32;11.63;;;4.37;;
9117;SDS011;4594;50.994;7.126;2024-01-27T12:34:58;8.00;;;3.83;;
9117;SDS011;4594;50.994;7.126;2024-01-27T12:37:33;7.30;;;3.30;;
9117;SDS011;4594;50.994;7.126;2024-01-27T12:40:00;6.70;;;3.30;;
9117;SDS011;4594;50.994;7.126;2024-01-27T12:42:26;7.93;;;3.07;;
9117;SDS011;4594;50.994;7.126;2024-01-27T12:44:52;11.30;;;3.57;;
9117;SDS011;4594;50.994;7.126;2024-01-27T12:47:18;6.10;;;3.17;;
9117;SDS011;4594;50.994;7.126;2024-01-27T12:49:45;6.73;;;3.37;;
9117;SDS011;4594;50.994;7.126;2024-01-27T12:52:10;5.30;;;2.60;;
9117;SDS011;4594;50.994;7.126;2024-01-27T12:54:36;5.77;;;2.67;;
9117;SDS011;4594;50.994;7.126;2024-01-27T12:57:02;3.00;;;2.50;;
9117;SDS011;4594;50.994;7.126;2024-01-27T12:59:28;4.20;;;2.47;;
9117;SDS011;4594;50.994;7.126;2024-01-27T13:01:54;5.67;;;3.10;;
9117;SDS011;4594;50.994;7.126;2024-01-27T13:04:20;4.23;;;3.00;;
9117;SDS011;4594;50.994;7.126;2024-01-27T13:06:45;7.40;;;3.30;;
9117;SDS011;4594;50.994;7.126;2024-01-27T13:09:11;8.07;;;4.07;;
9117;SDS011;4594;50.994;7.126;2024-01-27T13:11:38;6.83;;;4.37;;
9117;SDS011;4594;50.994;7.126;2024-01-27T13:14:04;5.47;;;3.20;;
9117;SDS011;4594;50.994;7.126;2024-01-27T13:16:31;6.57;;;3.30;;
9117;SDS011;4594;50.994;7.126;2024-01-27T13:18:57;7.10;;;2.93;;
9117;SDS011;4594;50.994;7.126;2024-01-27T13:21:23;4.50;;;2.90;;
9117;SDS011;4594;50.994;7.126;2024-01-27T13:23:48;4.83;;;2.90;;
9117;SDS011;4594;50.994;7.126;2024-01-27T13:26:17;5.90;;;3.83;;
9117;SDS011;4594;50.994;7.126;2024-01-27T13:28:42;9.20;;;4.23;;
9117;SDS011;4594;50.994;7.126;2024-01-27T13:31:08;12.33;;;5.70;;
9117;SDS011;4594;50.994;7.126;2024-01-27T13:33:34;12.33;;;4.90;;
9117;SDS011;4594;50.994;7.126;2024-01-27T13:36:00;7.40;;;4.30;;
9117;SDS011;4594;50.994;7.126;2024-01-27T13:38:26;10.17;;;3.77;;
9117;SDS011;4594;50.994;7.126;2024-01-27T13:40:52;6.17;;;3.37;;
9117;SDS011;4594;50.994;7.126;2024-01-27T13:43:18;8.43;;;3.43;;
9117;SDS011;4594;50.994;7.126;2024-01-27T13:45:43;4.77;;;3.10;;
9117;SDS011;4594;50.994;7.126;2024-01-27T13:48:11;5.50;;;2.90;;
9117;SDS011;4594;50.994;7.126;2024-01-27T13:50:36;3.57;;;2.90;;
9117;SDS011;4594;50.994;7.126;2024-01-27T13:53:02;4.70;;;2.63;;
9117;SDS011;4594;50.994;7.126;2024-01-27T13:55:30;10.00;;;3.50;;
9117;SDS011;4594;50.994;7.126;2024-01-27T13:57:56;6.67;;;3.23;;
9117;SDS011;4594;50.994;7.126;2024-01-27T14:00:22;7.10;;;2.73;;
9117;SDS011;4594;50.994;7.126;2024-01-27T14:02:47;9.47;;;3.10;;
9117;SDS011;4594;50.994;7.126;2024-01-27T14:05:13;4.63;;;3.10;;
9117;SDS011;4594;50.994;7.126;2024-01-27T14:07:39;6.83;;;3.43;;
9117;SDS011;4594;50.994;7.126;2024-01-27T14:10:05;5.83;;;3.50;;
9117;SDS011;4594;50.994;7.126;2024-01-27T14:12:31;9.57;;;4.23;;
9117;SDS011;4594;50.994;7.126;2024-01-27T14:15:06;10.50;;;3.30;;
9117;SDS011;4594;50.994;7.126;2024-01-27T14:17:33;8.77;;;2.83;;
9117;SDS011;4594;50.994;7.126;2024-01-27T14:20:03;6.90;;;2.90;;
9117;SDS011;4594;50.994;7.126;2024-01-27T14:22:30;5.57;;;2.60;;
9117;SDS011;4594;50.994;7.126;2024-01-27T14:24:56;5.30;;;2.90;;
9117;SDS011;4594;50.994;7.126;2024-01-27T14:27:21;3.60;;;2.83;;
9117;SDS011;4594;50.994;7.126;2024-01-27T14:29:54;6.17;;;2.83;;
9117;SDS011;4594;50.994;7.126;2024-01-27T14:32:21;2.83;;;2.33;;
9117;SDS011;4594;50.994;7.126;2024-01-27T14:34:48;6.77;;;2.93;;
9117;SDS011;4594;50.994;7.126;2024-01-27T14:37:14;7.47;;;3.30;;
9117;SDS011;4594;50.994;7.126;2024-01-27T14:39:44;7.33;;;3.07;;
9117;SDS011;4594;50.994;7.126;2024-01-27T14:42:13;9.90;;;4.60;;
9117;SDS011;4594;50.994;7.126;2024-01-27T14:44:39;10.47;;;5.00;;
9117;SDS011;4594;50.994;7.126;2024-01-27T14:47:07;7.53;;;4.13;;
9117;SDS011;4594;50.994;7.126;2024-01-27T14:49:33;8.00;;;3.40;;
9117;SDS011;4594;50.994;7.126;2024-01-27T14:52:01;11.10;;;3.60;;
9117;SDS011;4594;50.994;7.126;2024-01-27T14:54:27;6.23;;;3.43;;
9117;SDS011;4594;50.994;7.126;2024-01-27T14:56:53;7.90;;;3.73;;
9117;SDS011;4594;50.994;7.126;2024-01-27T14:59:18;10.27;;;4.63;;
9117;SDS011;4594;50.994;7.126;2024-01-27T15:01:44;13.37;;;6.80;;
9117;SDS011;4594;50.994;7.126;2024-01-27T15:04:11;21.63;;;9.53;;
9117;SDS011;4594;50.994;7.126;2024-01-27T15:06:38;19.10;;;8.10;;
9117;SDS011;4594;50.994;7.126;2024-01-27T15:09:03;11.60;;;5.83;;
9117;SDS011;4594;50.994;7.126;2024-01-27T15:11:29;11.67;;;5.77;;
9117;SDS011;4594;50.994;7.126;2024-01-27T15:13:55;17.33;;;8.30;;